CheckWX is a tool to help pilots better visualize weather data.  It is not intended as a substitute for an official pre-flight weather briefing.

17:42:03 UTC

EGXU TAF
RAF Linton-On-Ouse Airport
Linton-On-Ouse, United Kingdom
TAF EGXU 181320Z 1815/1818 24009KT 9999 SCT040

Jun-18@
15:00 UTC

Jun-18 @ 15:00 UTC

Jun-18@
18:00 UTC

Jun-18 @ 18:00 UTC

TAF EGXU 181320Z 1815/1818 24009KT 9999 SCT040
Wind
  • 240° at 9 KTS
Cloud Levels
  • Scattered at 4,000' AGL